Time;durP1;ratioP1;P1;durP2;ratioP2;P2;SDS_P1;SDS_P2;PMS_P1;PMS_P2;Temp;Humidity;BMP_temperature;BMP_pressure;BME280_temperature;BME280_humidity;BME280_pressure;Samples;Min_cycle;Max_cycle;Signal;HPM_P1;HPM_P2
2022/03/10 00:02:18;;;;;;;17.47;9.00;;;0.00;98.10;;;1.02;92.80;98918.63;5002931;28;20490;-74
2022/03/10 00:08:00;;;;;;;13.20;8.20;;;0.10;97.90;;;0.94;92.11;98923.47;4996530;28;20502;-74
2022/03/10 00:10:52;;;;;;;15.53;7.50;;;0.00;97.90;;;0.93;91.76;98921.84;5004945;28;21069;-73
2022/03/10 00:13:34;;;;;;;12.60;8.20;;;0.00;97.90;;;0.86;92.04;98921.44;5002929;28;20448;-74
2022/03/10 00:16:45;;;;;;;13.70;8.20;;;0.00;98.00;;;0.85;91.88;98917.19;5003823;28;20454;-74
2022/03/10 00:19:38;;;;;;;14.50;7.00;;;0.00;97.90;;;0.84;92.26;98923.28;4998273;28;21247;-74
2022/03/10 00:22:25;;;;;;;12.63;8.07;;;-0.10;98.00;;;0.85;92.63;98924.09;4977338;28;20490;-74
2022/03/10 00:27:54;;;;;;;15.43;7.77;;;-0.10;98.00;;;0.83;92.24;98923.38;4998842;28;20998;-74
2022/03/10 00:33:32;;;;;;;13.83;7.40;;;0.00;97.90;;;0.70;93.58;98920.81;5012251;28;20458;-74
2022/03/10 00:36:38;;;;;;;15.33;7.60;;;-0.20;98.50;;;0.68;93.94;98934.72;5059934;28;20953;-74
2022/03/10 00:39:13;;;;;;;15.00;7.97;;;-0.20;98.60;;;0.62;93.48;98932.56;4985508;28;20475;-74
2022/03/10 00:41:42;;;;;;;15.77;7.90;;;-0.30;98.40;;;0.63;93.50;98937.59;5001942;28;20569;-74
2022/03/10 01:42:16;;;;;;;12.47;6.87;;;-0.90;99.10;;;0.06;97.55;98933.72;5058955;28;21180;-74
2022/03/10 01:45:01;;;;;;;15.40;8.57;;;-1.10;99.30;;;0.11;97.28;98929.91;5060064;28;20453;-74
2022/03/10 01:47:48;;;;;;;14.23;7.50;;;-0.90;99.30;;;0.07;97.34;98931.03;5058175;28;20484;-74
2022/03/10 01:50:40;;;;;;;13.50;7.40;;;-0.90;99.00;;;0.04;96.67;98920.94;5059895;28;20727;-74
2022/03/10 01:53:10;;;;;;;14.70;7.90;;;-0.90;98.90;;;0.00;97.63;98922.09;5060429;28;20454;-74
2022/03/10 02:04:13;;;;;;;13.33;6.60;;;-1.00;99.00;;;-0.05;98.53;98919.00;5023709;23;20501;-74
2022/03/10 02:06:42;;;;;;;12.97;7.30;;;-1.10;99.40;;;-0.07;99.16;98921.66;5008487;28;20529;-74
2022/03/10 02:12:15;;;;;;;13.60;7.70;;;-1.00;99.20;;;-0.04;98.48;98923.22;5020842;28;20457;-74
2022/03/10 02:17:56;;;;;;;11.67;6.50;;;-1.10;99.40;;;-0.10;97.77;98921.03;5020983;28;20485;-74
2022/03/10 02:20:49;;;;;;;13.00;7.20;;;-1.10;99.30;;;-0.13;98.27;98923.78;5017935;28;20470;-74
2022/03/10 02:23:24;;;;;;;11.70;6.80;;;-1.20;99.40;;;-0.14;98.11;98927.31;5020601;28;20458;-74
2022/03/10 02:26:22;;;;;;;12.80;7.10;;;-1.20;99.20;;;-0.21;98.38;98923.47;4987447;28;20539;-74
2022/03/10 02:28:58;;;;;;;12.53;7.20;;;-1.30;99.20;;;-0.20;98.47;98922.53;5021664;28;20498;-75
2022/03/10 02:31:30;;;;;;;12.23;6.73;;;-1.20;99.50;;;-0.19;98.10;98924.19;5019187;28;20478;-74
2022/03/10 02:34:04;;;;;;;15.23;7.30;;;-1.20;99.30;;;-0.19;97.43;98919.06;5015855;28;20460;-74
2022/03/10 02:36:53;;;;;;;8.57;6.17;;;-1.10;99.00;;;-0.20;98.25;98923.38;5017087;28;20479;-74
2022/03/10 02:39:33;;;;;;;14.40;7.70;;;-1.20;99.20;;;-0.27;98.84;98919.53;5019934;28;20899;-74
2022/03/10 02:42:19;;;;;;;11.13;6.70;;;-1.20;99.50;;;-0.26;98.82;98922.94;5022472;28;20463;-74
2022/03/10 02:45:05;;;;;;;15.40;6.50;;;-1.20;99.30;;;-0.29;98.50;98921.41;5024295;28;20420;-74
2022/03/10 02:47:52;;;;;;;13.30;7.27;;;-1.30;99.10;;;-0.34;98.87;98917.44;5023917;28;21056;-74
2022/03/10 02:50:42;;;;;;;14.93;8.20;;;-1.40;99.40;;;-0.38;98.71;98919.38;5024620;28;20526;-74
2022/03/10 02:53:34;;;;;;;12.83;7.67;;;-1.20;99.40;;;-0.44;98.83;98921.53;5021167;28;20461;-74
2022/03/10 02:56:11;;;;;;;12.57;7.53;;;-1.30;99.50;;;-0.47;99.84;98914.84;5022262;28;20547;-74
2022/03/10 02:59:06;;;;;;;11.70;7.00;;;-1.50;99.30;;;-0.47;100.00;98914.00;5023791;28;20867;-74
2022/03/10 03:01:59;;;;;;;10.77;6.77;;;-1.50;99.60;;;-0.48;99.65;98915.75;5028323;28;20508;-74
2022/03/10 03:04:55;;;;;;;14.90;7.53;;;-1.50;99.50;;;-0.48;99.62;98914.94;5043381;28;20481;-74
2022/03/10 03:07:25;;;;;;;13.47;7.13;;;-1.40;99.70;;;-0.43;100.00;98915.47;4975162;28;20586;-74
2022/03/10 03:09:54;;;;;;;16.60;7.20;;;-1.40;99.40;;;-0.44;99.79;98919.78;5038357;28;20585;-74
2022/03/10 03:12:36;;;;;;;;;;;;;;;;;;;;;
2022/03/10 03:15:12;;;;;;;15.10;7.90;;;-1.40;99.30;;;-0.54;99.75;98919.53;5038789;28;20509;-74
2022/03/10 03:17:55;;;;;;;19.30;7.57;;;-1.60;99.30;;;-0.49;99.86;98924.41;5042150;28;20459;-74
2022/03/10 03:20:32;;;;;;;13.63;6.13;;;-1.50;99.50;;;-0.55;100.00;98927.34;5023051;28;20474;-74
2022/03/10 03:23:01;;;;;;;12.00;7.60;;;-1.60;99.50;;;-0.62;100.00;98929.47;5040149;28;20474;-74
2022/03/10 03:25:44;;;;;;;13.20;7.47;;;-1.60;99.80;;;-0.60;100.00;98924.25;5035549;28;20458;-74
2022/03/10 03:28:31;;;;;;;14.70;8.43;;;-1.60;99.90;;;-0.66;100.00;98920.28;5036929;28;20944;-74
2022/03/10 03:31:10;;;;;;;13.90;7.30;;;-1.70;99.80;;;-0.71;100.00;98921.50;5038431;28;20493;-74
2022/03/10 03:33:56;;;;;;;13.93;7.87;;;-1.70;99.90;;;-0.68;100.00;98918.75;5037224;28;20467;-74
2022/03/10 03:36:58;;;;;;;10.90;6.30;;;-1.70;99.90;;;-0.66;100.00;98911.78;5037322;28;20970;-74
2022/03/10 03:39:38;;;;;;;14.87;7.40;;;-1.70;99.80;;;-0.66;100.00;98910.03;5044523;28;20474;-74
2022/03/10 03:42:15;;;;;;;16.87;7.37;;;-1.60;99.90;;;-0.71;100.00;98926.66;5042238;28;20555;-74
2022/03/10 03:45:19;;;;;;;13.30;6.87;;;-1.80;99.70;;;-0.72;100.00;98925.81;5041769;28;20924;-74
2022/03/10 03:47:56;;;;;;;11.50;6.63;;;-1.80;99.80;;;-0.71;100.00;98922.34;5040811;28;20452;-74
2022/03/10 03:50:28;;;;;;;17.03;8.13;;;-1.80;99.90;;;-0.74;100.00;98921.72;5042447;28;20614;-74
2022/03/10 03:55:54;;;;;;;15.40;7.77;;;-1.70;99.90;;;-0.70;100.00;98928.31;5042291;28;20454;-74
2022/03/10 03:58:27;;;;;;;16.57;8.27;;;-1.70;99.80;;;-0.73;100.00;98931.88;5029156;28;20498;-74
2022/03/10 04:01:12;;;;;;;12.13;6.10;;;-1.80;99.80;;;-0.74;100.00;98922.53;5034747;28;20453;-74
2022/03/10 04:03:48;;;;;;;14.70;7.20;;;-1.80;99.90;;;-0.71;100.00;98932.59;5042424;28;20488;-74
2022/03/10 04:06:21;;;;;;;12.77;6.70;;;-1.70;99.90;;;-0.68;100.00;98929.84;4991275;28;20470;-73
2022/03/10 04:08:53;;;;;;;16.20;7.80;;;-1.70;99.70;;;-0.66;100.00;98920.28;5042671;28;20498;-72
2022/03/10 04:11:24;;;;;;;16.73;7.80;;;-1.60;99.70;;;-0.68;100.00;98927.28;5041117;28;20559;-73
2022/03/10 04:15:06;;;;;;;12.70;7.13;;;-1.70;99.50;;;-0.67;100.00;98930.69;5033975;28;20465;-73
2022/03/10 04:17:38;;;;;;;16.40;7.50;;;-1.60;99.60;;;-0.67;100.00;98928.94;5039536;28;20465;-73
2022/03/10 04:20:13;;;;;;;9.97;7.07;;;-1.60;99.50;;;-0.67;100.00;98931.50;5035516;28;20511;-78
2022/03/10 04:22:43;;;;;;;15.33;7.30;;;-1.60;99.50;;;-0.68;99.74;98941.84;5037366;28;21070;-74
2022/03/10 04:25:12;;;;;;;15.13;8.07;;;-1.60;99.50;;;-0.70;100.00;98939.41;5036033;28;20468;-73
2022/03/10 04:27:42;;;;;;;14.13;7.80;;;-1.60;99.50;;;-0.70;100.00;98939.41;5040244;28;20468;-72
2022/03/10 04:30:14;;;;;;;13.80;7.80;;;-1.70;99.40;;;-0.71;100.00;98932.59;5040479;28;20478;-72
2022/03/10 04:32:47;;;;;;;20.77;7.87;;;-1.60;99.50;;;-0.71;100.00;98932.59;5036628;28;20529;-73
2022/03/10 04:35:19;;;;;;;15.27;7.70;;;-1.60;99.60;;;-0.77;99.54;98934.72;5040360;28;20467;-79
2022/03/10 04:37:52;;;;;;;11.00;6.90;;;-1.60;99.40;;;-0.81;100.00;98936.66;5035858;28;20926;-73
2022/03/10 04:40:22;;;;;;;18.90;7.83;;;-1.60;99.60;;;-0.77;100.00;98942.44;5042404;28;20496;-73
2022/03/10 04:42:53;;;;;;;15.00;6.53;;;-1.70;99.30;;;-0.76;100.00;98937.19;5043095;28;20459;-73
2022/03/10 04:45:23;;;;;;;10.23;5.83;;;-1.70;99.30;;;-0.77;100.00;98933.00;5024967;28;20486;-73
2022/03/10 04:47:54;;;;;;;15.40;7.73;;;-1.70;99.40;;;-0.79;100.00;98937.38;5041294;28;20897;-73
2022/03/10 04:50:29;;;;;;;10.77;6.70;;;-1.70;99.60;;;-0.81;100.00;98928.97;5038976;28;20534;-73
2022/03/10 04:52:57;;;;;;;15.10;8.70;;;-1.80;99.60;;;-0.82;100.00;98929.88;5034666;28;20471;-74
2022/03/10 04:55:29;;;;;;;11.97;7.10;;;-1.70;99.60;;;-0.80;100.00;98940.06;5035940;28;20884;-73
2022/03/10 04:57:58;;;;;;;11.40;6.87;;;-1.70;99.70;;;-0.82;100.00;98935.00;5041411;28;20799;-73
2022/03/10 05:00:31;;;;;;;17.73;6.60;;;-1.80;99.60;;;-0.79;100.00;98939.13;5042679;28;20857;-79
2022/03/10 05:03:02;;;;;;;11.00;6.60;;;-1.80;99.60;;;-0.82;100.00;98935.00;5041384;28;20500;-73
2022/03/10 05:05:34;;;;;;;12.70;7.50;;;-1.70;99.50;;;-0.85;100.00;98935.19;5040385;28;20488;-73
2022/03/10 05:08:28;;;;;;;14.70;7.10;;;-1.80;99.70;;;-0.88;100.00;98932.00;5041046;28;20870;-73
2022/03/10 05:10:58;;;;;;;12.53;7.13;;;-1.80;99.80;;;-0.90;100.00;98937.22;5041624;28;21072;-74
2022/03/10 05:13:28;;;;;;;14.40;7.00;;;-1.90;99.50;;;-0.92;100.00;98933.91;5043972;28;20796;-75
2022/03/10 05:15:58;;;;;;;11.80;6.30;;;-1.90;99.70;;;-0.96;100.00;98941.91;5044114;28;20447;-74
2022/03/10 05:18:30;;;;;;;14.40;6.50;;;-2.00;99.50;;;-0.98;100.00;98942.00;5043997;28;20461;-75
2022/03/10 05:21:00;;;;;;;12.70;6.83;;;-2.00;99.70;;;-1.01;100.00;98934.50;5044254;28;20537;-75
2022/03/10 05:23:31;;;;;;;13.77;6.53;;;-2.10;99.60;;;-1.07;100.00;98940.81;5044265;28;20511;-74
2022/03/10 05:26:02;;;;;;;15.60;6.73;;;-2.10;99.90;;;-1.06;100.00;98944.19;5044419;28;20456;-75
2022/03/10 05:28:32;;;;;;;14.80;7.50;;;-2.10;99.90;;;-1.10;100.00;98942.72;5045639;28;20454;-75
2022/03/10 05:31:02;;;;;;;11.93;6.20;;;-2.10;99.90;;;-1.12;100.00;98942.00;5045572;28;20498;-75
2022/03/10 05:33:34;;;;;;;11.40;6.70;;;-2.10;99.90;;;-1.15;100.00;98937.91;5043658;28;20426;-74
2022/03/10 05:36:04;;;;;;;12.93;6.77;;;-2.20;99.90;;;-1.16;100.00;98940.53;5043579;28;20482;-74
2022/03/10 05:38:35;;;;;;;13.93;8.20;;;-2.20;99.90;;;-1.22;100.00;98946.03;5043768;28;20450;-75
2022/03/10 05:41:05;;;;;;;16.93;8.30;;;-2.20;99.90;;;-1.21;100.00;98957.94;5044852;28;20462;-74
2022/03/10 05:43:35;;;;;;;13.57;7.40;;;-2.20;99.90;;;-1.26;100.00;98954.84;5044305;28;20821;-74
2022/03/10 05:46:05;;;;;;;13.67;6.80;;;-2.30;99.90;;;-1.25;100.00;98954.72;5043900;28;20510;-75
2022/03/10 05:48:37;;;;;;;14.40;8.30;;;-2.30;99.90;;;-1.28;100.00;98961.78;5043081;28;20467;-75
2022/03/10 05:51:06;;;;;;;10.97;6.23;;;-2.40;99.90;;;-1.29;100.00;98966.09;5044704;28;20560;-74
2022/03/10 05:53:35;;;;;;;11.80;6.43;;;-2.40;99.90;;;-1.31;100.00;98962.78;5044316;28;20513;-74
2022/03/10 05:56:06;;;;;;;15.70;7.90;;;-2.40;99.90;;;-1.33;100.00;98967.19;5041914;28;20445;-75
2022/03/10 05:58:36;;;;;;;12.80;7.70;;;-2.30;99.90;;;-1.34;100.00;98970.66;5043254;28;20475;-74
2022/03/10 06:01:05;;;;;;;12.70;6.60;;;-2.40;99.90;;;-1.33;100.00;98963.81;5043738;28;20452;-75
2022/03/10 06:03:37;;;;;;;10.90;6.67;;;-2.40;99.90;;;-1.35;100.00;98974.13;5044070;28;20488;-75
2022/03/10 06:06:08;;;;;;;11.90;7.13;;;-2.30;99.90;;;-1.35;100.00;98973.31;5043466;28;21016;-75
2022/03/10 06:08:37;;;;;;;12.17;6.73;;;-2.20;99.90;;;-1.36;100.00;98974.25;5040451;28;20456;-74
2022/03/10 06:11:07;;;;;;;15.95;9.48;;;-2.30;99.90;;;-1.35;100.00;98981.00;5039243;28;20457;-74
2022/03/10 06:13:36;;;;;;;12.77;7.30;;;-2.40;99.90;;;-1.33;100.00;98979.19;5038518;28;20262;-74
2022/03/10 06:16:07;;;;;;;20.40;8.53;;;-2.30;99.90;;;-1.33;100.00;98979.19;5041442;28;21020;-74
2022/03/10 06:18:39;;;;;;;12.87;7.90;;;-2.30;99.90;;;-1.32;100.00;98985.97;5042340;28;21020;-74
2022/03/10 06:21:09;;;;;;;12.90;7.60;;;-2.30;99.90;;;-1.30;100.00;98987.53;5042865;28;20539;-74
2022/03/10 06:23:40;;;;;;;10.77;6.30;;;-2.30;99.90;;;-1.32;100.00;98996.25;5043390;28;20450;-75
2022/03/10 06:26:10;;;;;;;14.70;8.07;;;-2.40;99.90;;;-1.31;100.00;98997.88;5041894;28;20453;-74
2022/03/10 06:28:39;;;;;;;12.50;7.47;;;-2.40;99.90;;;-1.34;100.00;98998.06;5041901;28;20452;-75
2022/03/10 06:31:11;;;;;;;11.60;6.87;;;-2.30;99.90;;;-1.33;100.00;98999.72;5043932;28;20557;-75
2022/03/10 06:33:44;;;;;;;13.00;7.40;;;-2.30;99.90;;;-1.30;100.00;98999.53;5042786;28;20971;-75
2022/03/10 06:36:15;;;;;;;12.63;7.30;;;-2.30;99.90;;;-1.30;100.00;98999.53;5042174;28;21185;-74
2022/03/10 06:38:44;;;;;;;12.83;7.53;;;-2.30;99.90;;;-1.30;100.00;98995.22;5044163;28;20455;-74
2022/03/10 06:41:15;;;;;;;15.23;7.70;;;-2.30;99.90;;;-1.32;100.00;98998.81;5043270;28;20441;-74
2022/03/10 06:43:47;;;;;;;16.37;8.00;;;-2.30;99.90;;;-1.29;100.00;99004.59;5042546;28;20933;-74
2022/03/10 06:46:17;;;;;;;12.90;6.47;;;-2.30;99.90;;;-1.33;100.00;99004.84;5042277;28;20543;-74
2022/03/10 06:48:50;;;;;;;19.43;7.03;;;-2.40;99.90;;;-1.31;100.00;99003.81;5041805;28;20507;-75
2022/03/10 06:51:19;;;;;;;15.50;7.00;;;-2.30;99.90;;;-1.30;100.00;99004.66;5043851;28;20509;-75
2022/03/10 06:53:48;;;;;;;11.23;6.93;;;-2.30;99.90;;;-1.29;100.00;99008.88;5046943;28;20446;-74
2022/03/10 06:56:18;;;;;;;11.60;6.93;;;-2.20;99.90;;;-1.26;100.00;99006.13;5047607;28;20451;-74
2022/03/10 06:58:48;;;;;;;25.30;8.10;;;-2.20;99.90;;;-1.24;100.00;99001.72;5046719;28;20450;-74
2022/03/10 07:01:20;;;;;;;15.50;8.30;;;-2.20;99.90;;;-1.21;100.00;98998.97;5046999;28;20517;-75
2022/03/10 07:03:51;;;;;;;16.30;8.03;;;-2.20;99.90;;;-1.18;100.00;99003.94;5047490;28;20483;-74
2022/03/10 07:06:22;;;;;;;14.60;7.20;;;-2.10;99.90;;;-1.18;100.00;99003.94;5046963;28;20532;-74
2022/03/10 07:08:52;;;;;;;14.20;7.60;;;-2.10;99.90;;;-1.15;100.00;99001.19;5049100;28;20452;-74
2022/03/10 07:11:23;;;;;;;12.60;8.30;;;-2.00;99.90;;;-1.16;100.00;99008.06;5047677;28;20562;-74
2022/03/10 07:13:53;;;;;;;16.37;8.47;;;-1.90;99.90;;;-1.14;100.00;99005.41;5047146;28;20464;-74
2022/03/10 07:16:23;;;;;;;19.03;7.30;;;-2.00;99.90;;;-1.10;100.00;99006.88;5047719;28;20432;-74
2022/03/10 07:18:55;;;;;;;16.17;8.90;;;-2.00;99.90;;;-1.07;100.00;99011.81;5046888;28;20414;-74
2022/03/10 07:21:25;;;;;;;18.30;8.03;;;-1.90;99.90;;;-1.04;100.00;99001.38;5047672;28;20446;-74
2022/03/10 07:23:55;;;;;;;16.23;8.27;;;-1.90;99.90;;;-1.01;100.00;99002.00;5046065;28;20903;-74
2022/03/10 07:26:26;;;;;;;11.50;7.60;;;-1.90;99.90;;;-0.98;100.00;99000.19;5046080;28;20459;-74
2022/03/10 07:28:59;;;;;;;13.77;7.73;;;-1.90;99.90;;;-0.97;100.00;99000.09;5045453;28;20554;-74
2022/03/10 07:31:28;;;;;;;14.10;7.87;;;-1.80;99.90;;;-0.93;100.00;98998.16;5046334;28;20468;-74
2022/03/10 07:34:01;;;;;;;14.97;8.37;;;-1.80;99.90;;;-0.91;100.00;98996.34;5047522;28;20953;-74
2022/03/10 07:36:32;;;;;;;11.20;7.90;;;-1.80;99.90;;;-0.89;100.00;99002.19;5045155;28;20859;-74
2022/03/10 07:39:02;;;;;;;16.80;8.23;;;-1.80;99.90;;;-0.84;100.00;98993.31;5048323;28;20457;-75
2022/03/10 07:41:33;;;;;;;14.77;7.83;;;-1.80;99.90;;;-0.81;100.00;98988.00;5046688;28;20467;-74
2022/03/10 07:44:02;;;;;;;21.07;9.57;;;-1.80;99.90;;;-0.79;100.00;98983.59;5046602;28;20447;-74
2022/03/10 07:46:34;;;;;;;19.40;8.10;;;-1.60;99.90;;;-0.77;100.00;98989.47;5046031;28;21024;-75
2022/03/10 07:49:04;;;;;;;15.33;8.40;;;-1.70;99.90;;;-0.74;100.00;98984.16;5045693;28;20998;-75
2022/03/10 07:51:35;;;;;;;17.43;8.33;;;-1.70;99.90;;;-0.71;100.00;98983.13;5046038;28;21184;-74
2022/03/10 07:54:06;;;;;;;14.83;8.87;;;-1.60;99.90;;;-0.67;100.00;98984.59;5045327;28;20448;-74
2022/03/10 07:56:37;;;;;;;16.17;8.40;;;-1.60;99.90;;;-0.62;100.00;98978.25;5046251;28;20455;-75
2022/03/10 07:59:08;;;;;;;18.90;9.30;;;-1.50;99.90;;;-0.55;100.00;98979.53;5046242;28;20450;-75
2022/03/10 08:01:37;;;;;;;16.13;8.50;;;-1.40;99.90;;;-0.51;100.00;98975.84;5046215;28;20472;-75
2022/03/10 08:04:09;;;;;;;19.67;9.03;;;-1.40;99.90;;;-0.45;100.00;98978.97;5046706;28;20567;-74
2022/03/10 08:06:40;;;;;;;15.70;9.00;;;-1.30;99.90;;;-0.40;100.00;98971.78;5045068;28;20470;-75
2022/03/10 08:09:11;;;;;;;16.80;8.60;;;-1.30;99.90;;;-0.38;100.00;98968.19;5042112;28;20863;-74
2022/03/10 08:11:42;;;;;;;19.10;9.30;;;-1.30;99.90;;;-0.32;100.00;98972.16;5042235;28;20544;-75
2022/03/10 08:14:13;;;;;;;15.63;8.77;;;-1.20;99.90;;;-0.26;100.00;98966.63;5041400;28;20431;-74
2022/03/10 08:16:44;;;;;;;16.47;8.40;;;-1.10;99.90;;;-0.20;100.00;98966.22;5041779;28;20475;-75
2022/03/10 08:19:17;;;;;;;15.63;9.47;;;-1.00;99.90;;;-0.14;100.00;98968.41;5041485;28;20805;-75
2022/03/10 08:21:47;;;;;;;15.73;9.13;;;-1.00;99.90;;;-0.08;100.00;98968.03;5041632;28;20932;-75
2022/03/10 08:24:18;;;;;;;19.67;9.37;;;-0.90;99.90;;;-0.01;100.00;98962.41;5041735;28;20464;-75
2022/03/10 08:26:50;;;;;;;21.37;10.20;;;-0.90;99.90;;;0.04;100.00;98963.81;5041175;28;20473;-75
2022/03/10 08:29:20;;;;;;;26.43;10.53;;;-0.80;99.90;;;0.12;100.00;98959.84;5040711;28;20441;-75
2022/03/10 08:31:50;;;;;;;18.27;9.10;;;-0.70;99.90;;;0.16;100.00;98948.44;5041382;28;20524;-75
2022/03/10 08:34:22;;;;;;;13.40;8.37;;;-0.60;99.90;;;0.23;100.00;98952.28;5039631;28;20503;-74
2022/03/10 08:36:51;;;;;;;16.00;9.47;;;-0.60;99.90;;;0.29;100.00;98951.88;5040965;28;20453;-74
2022/03/10 08:39:22;;;;;;;16.40;10.10;;;-0.50;99.90;;;0.36;100.00;98949.72;5041290;28;20508;-75
2022/03/10 08:41:53;;;;;;;21.30;10.40;;;-0.50;99.90;;;0.42;100.00;98949.28;5041804;28;20446;-74
2022/03/10 08:44:24;;;;;;;17.03;9.60;;;-0.40;99.90;;;0.49;100.00;98946.22;5040936;28;20532;-75
2022/03/10 08:46:53;;;;;;;18.40;9.90;;;-0.30;99.90;;;0.57;100.00;98942.31;5040604;28;20881;-74
2022/03/10 08:49:25;;;;;;;21.97;10.63;;;-0.30;99.90;;;0.63;100.00;98939.31;5040901;28;20449;-75
2022/03/10 08:51:55;;;;;;;14.80;9.53;;;-0.20;99.90;;;0.71;100.00;98952.50;5045121;28;20545;-75
2022/03/10 08:54:25;;;;;;;19.20;10.43;;;-0.10;99.90;;;0.78;100.00;98953.75;5044845;28;20477;-75
2022/03/10 08:56:55;;;;;;;19.43;9.50;;;0.00;99.90;;;0.86;100.00;98947.16;5043984;28;20449;-75
2022/03/10 08:59:26;;;;;;;17.47;10.00;;;0.10;99.90;;;0.93;100.00;98934.69;5045378;28;20963;-75
2022/03/10 09:01:55;;;;;;;17.10;10.00;;;0.20;99.90;;;1.00;100.00;98938.50;5044472;28;20476;-75
2022/03/10 09:04:29;;;;;;;21.07;9.10;;;0.20;99.90;;;1.09;100.00;98943.00;5044731;28;20558;-74
2022/03/10 09:06:59;;;;;;;16.70;9.60;;;0.40;99.90;;;1.18;100.00;98942.38;5046578;28;20448;-74
2022/03/10 09:09:29;;;;;;;16.20;9.47;;;0.50;99.90;;;1.25;100.00;98935.88;5043732;28;20507;-74
2022/03/10 09:11:59;;;;;;;15.43;8.63;;;0.50;99.90;;;1.31;100.00;98937.22;5044295;28;20445;-75
2022/03/10 09:14:29;;;;;;;22.60;10.13;;;0.60;99.90;;;1.40;100.00;98931.41;5045250;28;20460;-75
2022/03/10 09:16:59;;;;;;;18.33;9.37;;;0.70;99.90;;;1.46;100.00;98925.81;5044309;28;20480;-75
2022/03/10 09:19:32;;;;;;;21.33;10.57;;;0.70;99.90;;;1.56;100.00;98931.16;5043701;28;20974;-75
2022/03/10 09:22:02;;;;;;;20.10;9.73;;;0.80;99.90;;;1.64;100.00;98924.50;5044842;28;20968;-75
2022/03/10 09:24:34;;;;;;;21.33;10.30;;;1.00;99.90;;;1.73;100.00;98920.47;5045594;28;20468;-75
2022/03/10 09:27:05;;;;;;;21.40;9.60;;;1.00;99.90;;;1.82;100.00;98918.03;5045215;28;21084;-75
2022/03/10 09:29:35;;;;;;;18.50;10.00;;;1.20;99.90;;;1.90;100.00;98915.75;5044037;28;20450;-75
2022/03/10 09:32:07;;;;;;;14.63;8.40;;;1.20;99.90;;;1.98;100.00;98913.41;5044714;28;20446;-75
2022/03/10 09:34:38;;;;;;;18.73;9.43;;;1.30;99.90;;;2.07;100.00;98913.69;5044487;28;20446;-75
2022/03/10 09:37:07;;;;;;;18.97;9.87;;;1.40;99.90;;;2.15;100.00;98914.78;5044407;28;20449;-75
2022/03/10 09:39:37;;;;;;;15.63;8.67;;;1.50;99.90;;;2.22;100.00;98900.47;5044109;28;20463;-75
2022/03/10 09:42:11;;;;;;;19.53;9.30;;;1.60;99.90;;;2.30;100.00;98898.16;5043612;28;20454;-75
2022/03/10 09:44:43;;;;;;;16.87;9.87;;;1.70;99.90;;;2.39;100.00;98892.31;5044439;28;20474;-75
2022/03/10 09:47:13;;;;;;;14.63;7.80;;;1.80;99.90;;;2.48;100.00;98891.63;5044262;28;20496;-75
2022/03/10 09:49:45;;;;;;;15.93;8.60;;;1.90;99.90;;;2.57;100.00;98890.09;5044311;28;20525;-74
2022/03/10 09:52:16;;;;;;;19.17;10.40;;;2.00;99.90;;;2.68;100.00;98891.84;5044376;28;20445;-75
2022/03/10 09:54:47;;;;;;;12.87;8.10;;;2.20;99.90;;;2.78;100.00;98888.47;5044489;28;20454;-75
2022/03/10 09:57:18;;;;;;;20.53;7.97;;;2.20;99.60;;;2.89;100.00;98885.88;5044926;28;20449;-75
2022/03/10 09:59:52;;;;;;;15.50;8.20;;;2.40;99.90;;;3.00;98.37;98887.63;5044182;28;20947;-75
2022/03/10 10:02:23;;;;;;;18.07;9.40;;;2.50;99.50;;;3.14;96.63;98884.81;5043661;28;20609;-75
2022/03/10 10:04:55;;;;;;;19.70;9.60;;;2.60;99.00;;;3.26;94.24;98881.28;5041630;28;20574;-75
2022/03/10 10:07:27;;;;;;;17.40;8.60;;;2.80;98.90;;;3.38;92.87;98877.72;5039049;28;20447;-75
2022/03/10 10:09:58;;;;;;;16.80;9.53;;;2.90;98.50;;;3.51;92.07;98878.38;5039802;28;21159;-75
2022/03/10 10:12:30;;;;;;;16.40;7.90;;;3.10;98.40;;;3.63;91.14;98875.75;5039484;28;20499;-75
2022/03/10 10:15:00;;;;;;;14.87;8.53;;;3.20;98.10;;;3.75;90.33;98880.75;5039811;28;20442;-75
2022/03/10 10:17:31;;;;;;;19.30;8.80;;;3.30;97.90;;;3.86;89.75;98869.53;5039009;28;20449;-75
2022/03/10 10:20:23;;;;;;;20.73;9.17;;;3.40;97.70;;;3.99;89.20;98867.63;5038604;28;20445;-75
2022/03/10 10:22:53;;;;;;;16.93;9.53;;;3.60;97.60;;;4.13;88.87;98869.06;5038810;28;21147;-75
2022/03/10 10:25:23;;;;;;;17.17;9.50;;;3.60;97.10;;;4.23;88.13;98863.00;5039328;28;20460;-75
2022/03/10 10:27:54;;;;;;;15.40;9.30;;;3.80;97.30;;;4.35;87.01;98868.94;5039556;28;20442;-75
2022/03/10 10:30:23;;;;;;;16.20;7.90;;;3.90;97.00;;;4.44;86.11;98850.84;5038935;28;20485;-75
2022/03/10 10:32:55;;;;;;;15.33;8.33;;;4.00;97.00;;;4.56;85.51;98856.78;5038724;28;20984;-75
2022/03/10 10:35:26;;;;;;;14.30;7.03;;;4.10;96.80;;;4.73;83.29;98857.94;5038419;28;20462;-75
2022/03/10 10:37:56;;;;;;;17.20;8.93;;;4.40;96.30;;;4.96;80.80;98851.63;5039674;28;20859;-75
2022/03/10 10:40:29;;;;;;;13.80;8.17;;;4.60;95.80;;;5.12;80.29;98853.72;5039995;28;21032;-75
2022/03/10 10:42:58;;;;;;;14.20;7.90;;;4.60;95.80;;;5.28;80.42;98841.88;5039054;28;20457;-75
2022/03/10 10:45:34;;;;;;;14.07;8.07;;;4.80;95.80;;;5.39;79.56;98844.34;5038083;28;21036;-75
2022/03/10 10:48:06;;;;;;;13.33;7.60;;;4.90;95.80;;;5.54;79.73;98845.59;5039422;28;20437;-75
2022/03/10 10:50:40;;;;;;;15.30;7.60;;;5.00;95.60;;;5.61;79.19;98839.88;5042245;28;20510;-75
2022/03/10 10:53:10;;;;;;;14.23;8.20;;;5.20;95.50;;;5.69;78.29;98840.00;5043742;28;20526;-75
2022/03/10 10:55:42;;;;;;;17.20;8.77;;;5.30;95.40;;;5.79;77.17;98835.63;5042772;28;20472;-75
2022/03/10 10:58:15;;;;;;;11.57;6.87;;;5.40;95.20;;;5.89;75.30;98828.69;5044082;28;20444;-75
2022/03/10 11:00:49;;;;;;;13.40;8.43;;;5.50;94.30;;;5.99;75.20;98830.31;5044083;28;20536;-75
2022/03/10 11:03:28;;;;;;;12.93;8.30;;;5.60;94.70;;;6.08;74.69;98831.25;5044378;28;20455;-75
2022/03/10 11:06:01;;;;;;;11.67;7.27;;;5.60;94.20;;;6.19;73.61;98819.88;5047837;28;20445;-75
2022/03/10 11:08:29;;;;;;;20.33;7.70;;;5.80;94.20;;;6.31;70.38;98819.59;5046186;28;20819;-75
2022/03/10 11:11:00;;;;;;;12.20;6.10;;;5.90;93.40;;;6.42;69.48;98821.22;5046886;28;20446;-75
2022/03/10 11:13:30;;;;;;;15.50;8.33;;;6.00;93.20;;;6.57;67.97;98825.78;5046240;28;20532;-75
2022/03/10 11:15:59;;;;;;;11.83;6.20;;;6.20;92.80;;;6.65;67.94;98825.09;5046573;28;20445;-75
2022/03/10 11:18:31;;;;;;;10.83;6.30;;;6.30;93.20;;;6.77;66.61;98831.72;5047056;28;20453;-75
2022/03/10 11:21:19;;;;;;;12.83;6.50;;;6.40;92.70;;;6.87;65.99;98816.09;5046193;28;21886;-75
2022/03/10 11:24:10;;;;;;;12.27;6.53;;;6.50;92.40;;;6.98;65.36;98816.72;5047071;28;20500;-75
2022/03/10 11:26:53;;;;;;;10.40;6.90;;;6.60;92.10;;;7.12;64.95;98818.00;5046416;28;20449;-76
2022/03/10 11:29:26;;;;;;;13.27;7.00;;;6.60;92.20;;;7.16;65.00;98805.53;5046545;28;20446;-75
2022/03/10 11:31:56;;;;;;;14.90;6.83;;;6.80;92.20;;;7.22;64.42;98815.38;5046386;28;20449;-75
2022/03/10 11:34:49;;;;;;;10.37;6.30;;;6.80;92.00;;;7.33;63.42;98810.75;5045144;28;21568;-75
2022/03/10 11:37:52;;;;;;;9.87;6.17;;;6.90;91.80;;;7.42;63.16;98804.69;5045912;28;20520;-75
2022/03/10 11:40:56;;;;;;;13.83;6.07;;;7.00;91.80;;;7.52;63.19;98799.41;5047190;28;20941;-75
2022/03/10 11:43:34;;;;;;;19.23;7.10;;;7.20;91.80;;;7.63;61.91;98798.34;5046785;28;20481;-75
2022/03/10 11:46:21;;;;;;;14.17;6.87;;;7.20;91.40;;;7.74;61.21;98795.53;5045866;28;20482;-75
2022/03/10 11:49:11;;;;;;;12.83;7.13;;;7.40;91.10;;;7.82;61.48;98793.78;5047569;28;20511;-75
2022/03/10 11:51:50;;;;;;;16.13;5.87;;;7.40;91.40;;;7.93;61.21;98790.13;5043146;28;20487;-75
2022/03/10 11:54:24;;;;;;;10.70;6.13;;;7.50;90.80;;;8.00;60.92;98775.53;5046178;28;20508;-75
2022/03/10 11:57:04;;;;;;;10.80;6.03;;;7.60;91.10;;;8.09;59.17;98774.59;5046120;28;20531;-75
2022/03/10 11:59:53;;;;;;;11.50;6.27;;;7.70;90.70;;;8.23;59.04;98768.00;5043711;28;20453;-75
2022/03/10 12:02:44;;;;;;;12.47;6.03;;;7.80;90.50;;;8.33;58.82;98764.34;5047148;28;20500;-75
2022/03/10 12:05:15;;;;;;;11.20;6.20;;;7.90;90.50;;;8.41;58.64;98764.41;5044529;28;20857;-75
2022/03/10 12:07:52;;;;;;;10.03;5.83;;;8.00;90.70;;;8.51;57.43;98754.66;5040739;28;20457;-76
2022/03/10 12:10:24;;;;;;;8.50;5.40;;;8.10;90.10;;;8.58;57.20;98745.25;5044778;28;20949;-75
2022/03/10 12:12:55;;;;;;;8.43;5.00;;;8.10;90.10;;;8.67;57.41;98748.72;5042174;28;20453;-75